AirNav   TITAN Aviation Fuels
 
 432 users online  

0W0 Seattle Seaplanes Seaplane Base
Seattle, Washington, USA

GOING TO SEATTLE?


FAA INFORMATION EFFECTIVE 22 APRIL 2021

Location

FAA Identifier: 0W0
Lat/Long: 47-37-39.3530N 122-19-54.4570W
47-37.655883N 122-19.907617W
47.6275981,-122.3317936
(estimated)
Elevation: 14 ft. / 4 m (estimated)
Variation: 21E (1980)
From city: 1 mile N of SEATTLE, WA
Time zone: UTC -7 (UTC -8 during Standard Time)
Zip code: 98109

Seaplane Base Operations

Seaplane Base use: Open to the public
Activation date: 04/1986
Control tower: no
ARTCC: SEATTLE CENTER
FSS: SEATTLE FLIGHT SERVICE STATION
NOTAMs facility: SEA (NOTAM-D service available)
Attendance: 0800-DUSK
Wind indicator: yes
Segmented circle: no

Seaplane Base Communications

CTAF: 122.9
WX ASOS at BFI (6 nm S): PHONE 206-658-6435
WX ASOS at RNT (9 nm SE): 126.95 (425-255-6080)
WX ASOS at SEA (11 nm S): 127.75 (206-214-2592)
WX ASOS at PAE (17 nm N): 128.65 (425-355-6192)
WX AWOS-3PT at PWT (19 nm SW): 121.2 (360-674-2811)

Nearby radio navigation aids

VOR radial/distance  VOR name  Freq  Var
SEAr337/11.6SEATTLE VORTAC116.8019E
PAEr167/17.7PAINE VOR/DME110.6020E

Seaplane Base Services

Airframe service: MINOR
Powerplant service: MINOR

Runway Information

Runway 18W/36W

Dimensions: 9500 x 300 ft. / 2896 x 91 m
Surface: water, in excellent condition
RUNWAY 18W  RUNWAY 36W
Traffic pattern: leftleft

Seaplane Base Ownership and Management from official FAA records

Ownership: Privately-owned
Owner: SEATTLE SEAPLANES
1325 FAIRVIEW EAST
SEATTLE, WA 98102
Phone 206-329-9638
Manager: JIM CHRYSLER
1325 FAIRVIEW EAST
SEATTLE, WA 98102
Phone 206-329-9638

Seaplane Base Operational Statistics

Aircraft based on the field: 4
Single engine airplanes: 4
    
Aircraft operations: avg 50/week *
96% air taxi
2% transient general aviation
2% local general aviation
* for 12-month period ending 31 December 2019

Additional Remarks

SMALL WATERCRAFT ACTVT ON LAKE.
FOR CD CTC SEATTLE APCH AT 206-214-4722.

Instrument Procedures

There are no published instrument procedures at 0W0.

Some nearby airports with instrument procedures:

KBFI - Boeing Field/King County International Airport (6 nm S)
KRNT - Renton Municipal Airport (9 nm SE)
KSEA - Seattle-Tacoma International Airport (11 nm S)
KPAE - Snohomish County Airport (Paine Field) (17 nm N)
S50 - Auburn Municipal Airport (18 nm S)
S43 - Harvey Field Airport (19 nm NE)
KPWT - Bremerton National Airport (19 nm SW)
 
Loc | Ops | Rwys | IFR | FBO | Links
Com | Nav | Svcs | Stats | Notes
Area around 0W0 (Seattle Seaplanes Seaplane Base)
 
Road maps at: MapQuest Bing Google
 
Aerial photo
WARNING: Photo may not be current or correct
Aerial photo of 0W0 (Seattle Seaplanes Seaplane Base)
Photo taken 24-Jan-2007

Do you have a better or more recent aerial photo of Seattle Seaplanes Seaplane Base that you would like to share? If so, please send us your photo.

 
Sectional chart

 
Airport distance calculator
Flying to Seattle Seaplanes Seaplane Base? Find the distance to fly.

From to 0W0

Sunrise and sunset
Times for 15-May-2021
 Local
(UTC-7)
 Zulu
(UTC)
Morning civil twilight04:5611:56
Sunrise05:3312:33
Sunset20:3903:39
Evening civil twilight21:1504:15

Current date and time
Zulu (UTC)  15-May-2021 08:21:11
Local (UTC-7)  15-May-2021 01:21:11
 
METAR
KBFI 
5nm S 
150753Z 00000KT 10SM CLR 14/07 A3010 RMK AO2 SLP193 T01390067
KRNT 
9nm SE 
150753Z AUTO 34005KT 10SM CLR 14/07 A3010 RMK AO2 SLP196 T01390067
KSEA 
11nm S 
150753Z 35006KT 10SM CLR 12/06 A3010 RMK AO2 SLP199 T01220056
KPAE 
17nm N 
150753Z AUTO 01005KT 10SM CLR 11/07 A3011 RMK AO2 SLP197 T01110067 402000089
KPWT 
19nm SW 
150756Z AUTO 00000KT 10SM CLR 08/08 A3011 RMK AO2 SLP201 T00830078 402390044
TAF
KBFI 
5nm S 
150537Z 1506/1606 VRB03KT P6SM SCT200 FM151800 31008KT P6SM SKC
KSEA 
11nm S 
150537Z 1506/1612 04010KT P6SM SCT200 FM151000 33004KT P6SM SKC FM152000 35010KT P6SM SKC FM160300 31006KT P6SM SKC
KPAE 
17nm N 
150537Z 1506/1606 36008KT P6SM SCT200 FM150800 02003KT P6SM SKC FM151800 31007KT P6SM SKC FM160300 35004KT P6SM SKC
KPWT 
19nm SW 
150537Z 1506/1606 VRB03KT P6SM SCT200 FM151800 04006KT P6SM SKC
NOTAMs
Click for the latest NOTAMs
NOTAMs are issued by the DoD/FAA and will open in a separate window not controlled by AirNav.

 

 
 

Would you like to see your business listed on this page?

 If your business provides an interesting product or service to pilots, flight crews, aircraft, or users of the Seattle Seaplanes Seaplane Base, you should consider listing it here.  To start the listing process, click on the button below
 
Add a business
 

Other Pages about Seattle Seaplanes Seaplane Base

Update a link
 
Copyright © AirNav, LLC. All rights reserved. Privacy Policy  Contact